Buckner, Kentucky
Current Conditions -  °F | °C
As of 11:53 PM on Monday 22 Dec 2014 (Local Time) from KLOU Reporting Station
Light Rain Light Rain  
Wind Chill: 51°   Ceiling: 6000
Heat Index: 51°   Visibility: 10mi
Dew Point: 49°   Wind: 8mph
Humidity: 92%   Direction: 140°SE
Pressure: 29.7"   Gusts: NA
Location:  38.38°N, 85.44°W
Report Text: KLOU 230453Z 14007KT 10SM -RA BKN060 OVC085 11/09 A2970 RMK AO2 SLP058 P0012 T01060094 401220017
Loading
Personal Weather Stations






























Interactive Weather Map New forecast layout! Learn more

10-Day Weather Forecast

Advertisements
Track Severe Weather on mobile